createdAt,value
2022-09-24T04:00:40.271Z,14.66
2022-09-24T04:05:35.605Z,14.64
2022-09-24T04:10:34.557Z,14.64
2022-09-24T04:15:41.629Z,14.64
2022-09-24T04:20:34.443Z,14.53
2022-09-24T04:25:34.391Z,14.53
2022-09-24T04:30:34.335Z,14.63
2022-09-24T04:35:34.380Z,14.65
2022-09-24T04:40:34.325Z,14.66
2022-09-24T04:45:34.168Z,14.73
2022-09-24T04:50:34.115Z,14.81
2022-09-24T04:55:34.087Z,14.84
2022-09-24T05:00:34.008Z,14.80
2022-09-24T05:05:33.971Z,14.87
2022-09-24T05:10:33.898Z,14.81
2022-09-24T05:15:33.867Z,14.78
2022-09-24T05:20:33.793Z,14.75
2022-09-24T05:25:33.734Z,14.74
2022-09-24T05:30:33.681Z,14.72
2022-09-24T05:35:33.650Z,14.71
2022-09-24T05:40:33.643Z,14.18
2022-09-24T05:45:33.504Z,14.05
2022-09-24T05:50:33.467Z,13.87
2022-09-24T05:55:33.529Z,14.01
2022-09-24T06:00:33.344Z,14.56
2022-09-24T06:05:33.310Z,14.73
2022-09-24T06:10:33.232Z,14.83
2022-09-24T06:15:33.209Z,14.86
2022-09-24T06:20:33.138Z,14.91
2022-09-24T06:25:33.083Z,15.06
2022-09-24T06:30:33.038Z,15.26
2022-09-24T06:35:32.990Z,15.55
2022-09-24T06:40:36.872Z,15.92
2022-09-24T06:45:32.869Z,16.21
2022-09-24T06:50:32.794Z,16.41
2022-09-24T06:55:32.854Z,16.59
2022-09-24T07:00:32.905Z,16.78
2022-09-24T07:05:32.625Z,16.99
2022-09-24T07:10:32.584Z,17.28
2022-09-24T07:15:32.557Z,17.16
2022-09-24T07:20:32.460Z,17.13
2022-09-24T07:25:32.412Z,17.18
2022-09-24T07:30:32.366Z,17.33
2022-09-24T07:35:32.317Z,17.48
2022-09-24T07:40:32.399Z,17.31
2022-09-24T07:45:32.205Z,17.35
2022-09-24T07:50:32.133Z,17.25
2022-09-24T07:55:32.106Z,17.80
2022-09-24T08:00:32.037Z,18.52
2022-09-24T08:05:31.982Z,19.44
2022-09-24T08:10:31.907Z,19.06
2022-09-24T08:15:31.890Z,19.08
2022-09-24T08:20:31.819Z,19.62
2022-09-24T08:25:31.750Z,21.01
2022-09-24T08:30:31.710Z,20.31
2022-09-24T08:35:31.682Z,19.55
2022-09-24T08:40:31.628Z,19.23
2022-09-24T08:45:31.554Z,19.03
2022-09-24T08:50:31.630Z,18.86
2022-09-24T08:55:31.439Z,19.21
2022-09-24T09:00:31.367Z,19.20
2022-09-24T09:05:31.329Z,19.18
2022-09-24T09:10:31.248Z,19.21
2022-09-24T09:15:31.232Z,19.18
2022-09-24T09:20:31.152Z,19.30
2022-09-24T09:25:31.096Z,19.28
2022-09-24T09:30:31.038Z,19.23
2022-09-24T09:35:31.010Z,19.33
2022-09-24T09:40:32.298Z,19.72
2022-09-24T09:45:30.877Z,19.89
2022-09-24T09:50:30.821Z,20.44
2022-09-24T09:55:30.890Z,20.28
2022-09-24T10:00:30.712Z,20.31
2022-09-24T10:05:30.661Z,20.34
2022-09-24T10:10:30.604Z,20.64
2022-09-24T10:15:30.657Z,20.69
2022-09-24T10:20:37.589Z,20.67
2022-09-24T10:25:30.443Z,20.57
2022-09-24T10:30:30.390Z,20.59
2022-09-24T10:35:30.352Z,20.04
2022-09-24T10:40:30.349Z,19.80
2022-09-24T10:45:30.217Z,19.61
2022-09-24T10:50:30.178Z,19.71
2022-09-24T10:55:30.156Z,19.72
2022-09-24T11:00:30.051Z,19.78
2022-09-24T11:05:30.029Z,20.21
2022-09-24T11:10:29.961Z,20.37
2022-09-24T11:15:29.908Z,20.20
2022-09-24T11:20:29.854Z,19.95
2022-09-24T11:25:29.787Z,19.96
2022-09-24T11:30:29.741Z,19.99
2022-09-24T11:35:29.705Z,19.86
2022-09-24T11:40:29.684Z,20.00
2022-09-24T11:45:29.576Z,20.30
2022-09-24T11:50:29.638Z,20.20
2022-09-24T11:55:29.490Z,20.05
2022-09-24T12:00:29.415Z,19.43
2022-09-24T12:05:29.358Z,19.34
2022-09-24T12:10:29.310Z,19.45
2022-09-24T12:15:29.367Z,19.50
2022-09-24T12:20:29.199Z,19.35
2022-09-24T12:25:29.137Z,19.57
2022-09-24T12:30:29.087Z,19.69
2022-09-24T12:35:29.046Z,19.59
2022-09-24T12:40:29.045Z,19.68
2022-09-24T12:45:28.926Z,19.92
2022-09-24T12:50:28.866Z,19.98
2022-09-24T12:55:28.921Z,20.48
2022-09-24T13:00:28.811Z,20.47
2022-09-24T13:05:28.703Z,20.25
2022-09-24T13:10:28.644Z,20.72
2022-09-24T13:15:28.624Z,20.29
2022-09-24T13:20:28.539Z,20.45
2022-09-24T13:25:28.486Z,20.15
2022-09-24T13:30:28.427Z,20.26
2022-09-24T13:35:28.398Z,20.28
2022-09-24T13:40:28.381Z,20.13
2022-09-24T13:45:28.262Z,19.90
2022-09-24T13:50:28.211Z,19.77
2022-09-24T13:55:28.180Z,20.28
2022-09-24T14:00:28.099Z,20.37
2022-09-24T14:05:28.048Z,19.92
2022-09-24T14:10:27.990Z,20.10
2022-09-24T14:15:27.957Z,20.66
2022-09-24T14:20:27.883Z,20.33
2022-09-24T14:25:27.825Z,20.18
2022-09-24T14:30:27.771Z,20.09
2022-09-24T14:35:29.864Z,19.83
2022-09-24T14:40:27.691Z,19.57
2022-09-24T14:45:27.604Z,19.63
2022-09-24T14:50:27.554Z,19.49
2022-09-24T14:55:27.510Z,19.46
2022-09-24T15:00:27.457Z,19.29
2022-09-24T15:05:27.447Z,19.22
2022-09-24T15:10:27.329Z,19.08
2022-09-24T15:15:27.295Z,18.95
2022-09-24T15:20:27.239Z,18.99
2022-09-24T15:25:27.167Z,18.63
2022-09-24T15:30:27.108Z,18.55
2022-09-24T15:35:27.079Z,18.51
2022-09-24T15:40:27.038Z,18.46
2022-09-24T15:45:26.933Z,18.65
2022-09-24T15:50:26.894Z,18.73
2022-09-24T15:55:26.845Z,18.47
2022-09-24T16:00:26.782Z,18.39
2022-09-24T16:05:26.719Z,18.39
2022-09-24T16:10:26.672Z,18.33
2022-09-24T16:15:26.633Z,18.26
2022-09-24T16:20:33.796Z,18.17
2022-09-24T16:25:26.497Z,18.09
2022-09-24T16:30:26.464Z,18.00
2022-09-24T16:35:26.405Z,18.03
2022-09-24T16:40:26.397Z,18.00
2022-09-24T16:45:26.274Z,17.90
2022-09-24T16:50:26.242Z,17.91
2022-09-24T16:55:26.187Z,17.87
2022-09-24T17:00:26.122Z,17.82
2022-09-24T17:05:26.051Z,17.78
2022-09-24T17:10:26.008Z,17.68
2022-09-24T17:15:25.989Z,17.71
2022-09-24T17:20:25.888Z,17.68
2022-09-24T17:25:25.842Z,17.51
2022-09-24T17:30:25.788Z,17.54
2022-09-24T17:35:25.748Z,17.38
2022-09-24T17:40:25.739Z,17.49
2022-09-24T17:45:25.623Z,17.36
2022-09-24T17:50:25.550Z,17.32
2022-09-24T17:55:25.535Z,17.30
2022-09-24T18:00:25.456Z,17.18
2022-09-24T18:05:25.386Z,17.23
2022-09-24T18:10:25.337Z,17.16
2022-09-24T18:15:25.477Z,17.13
2022-09-24T18:20:25.218Z,17.07
2022-09-24T18:25:25.174Z,17.01
2022-09-24T18:30:25.489Z,17.03
2022-09-24T18:35:25.072Z,16.94
2022-09-24T18:40:25.112Z,17.10
2022-09-24T18:45:24.956Z,17.04
2022-09-24T18:50:24.890Z,17.06
2022-09-24T18:55:24.856Z,16.97
2022-09-24T19:00:24.798Z,16.97
2022-09-24T19:05:24.715Z,16.88
2022-09-24T19:10:24.672Z,16.91
2022-09-24T19:15:24.677Z,16.87
2022-09-24T19:20:24.551Z,16.78
2022-09-24T19:25:24.503Z,16.78
2022-09-24T19:30:24.466Z,16.66
2022-09-24T19:35:24.406Z,16.66
2022-09-24T19:40:24.363Z,16.67
2022-09-24T19:45:24.291Z,16.74
2022-09-24T19:50:24.217Z,16.71
2022-09-24T19:55:28.520Z,16.63
2022-09-24T20:00:24.119Z,16.57
2022-09-24T20:05:24.051Z,16.48
2022-09-24T20:10:24.013Z,16.44
2022-09-24T20:15:24.026Z,16.48
2022-09-24T20:20:23.880Z,16.46
2022-09-24T20:25:23.837Z,16.37
2022-09-24T20:30:23.809Z,16.32
2022-09-24T20:35:23.833Z,16.27
2022-09-24T20:40:23.755Z,16.18
2022-09-24T20:45:23.679Z,16.07
2022-09-24T20:50:23.554Z,16.02
2022-09-24T20:55:23.534Z,16.01
2022-09-24T21:00:23.545Z,16.03
2022-09-24T21:05:23.385Z,16.00
2022-09-24T21:10:23.344Z,15.97
2022-09-24T21:15:23.309Z,15.95
2022-09-24T21:20:23.221Z,15.85
2022-09-24T21:25:52.388Z,15.90
2022-09-24T21:30:24.122Z,15.87
2022-09-24T21:35:23.076Z,15.83
2022-09-24T21:40:23.238Z,15.79
2022-09-24T21:45:22.970Z,15.86
2022-09-24T21:50:22.893Z,15.82
2022-09-24T21:55:22.884Z,15.77
2022-09-24T22:00:22.806Z,15.88
2022-09-24T22:05:22.733Z,15.94
2022-09-24T22:10:22.686Z,15.83
2022-09-24T22:15:22.658Z,15.71
2022-09-24T22:20:22.560Z,15.94
2022-09-24T22:25:29.571Z,15.93
2022-09-24T22:30:22.467Z,15.86
2022-09-24T22:35:22.427Z,15.85
2022-09-24T22:40:22.451Z,15.79
2022-09-24T22:45:22.296Z,15.87
2022-09-24T22:50:22.252Z,15.85
2022-09-24T22:55:22.229Z,15.76
2022-09-24T23:00:22.129Z,15.78
2022-09-24T23:05:22.200Z,15.64
2022-09-24T23:10:22.029Z,15.74
2022-09-24T23:15:22.000Z,15.69
2022-09-24T23:20:21.918Z,15.71
2022-09-24T23:25:21.861Z,15.73
